Time,TemperatureF,DewpointF,PressureIn,WindDirection,WindDirectionDegrees,WindSpeedMPH,WindSpeedGustMPH,Humidity,HourlyPrecipIn,Conditions,Clouds,dailyrainin,SoftwareType,DateUTC
2013-07-29 00:02:00,42.0,39.0,30.09,NNW,334,1.0,-999.0,90,-99.99,,,-99.99,,2013-07-29 06:02:00,
2013-07-29 00:11:00,42.0,39.0,30.07,NNW,334,0.0,-999.0,90,-99.99,,,-99.99,,2013-07-29 06:11:00,
2013-07-29 00:21:00,42.0,40.0,30.08,North,360,1.0,-999.0,91,-99.99,,,-99.99,,2013-07-29 06:21:00,
2013-07-29 00:52:00,43.0,41.0,30.08,NNE,24,0.0,-999.0,94,-99.99,,,-99.99,,2013-07-29 06:52:00,
2013-07-29 01:01:00,43.0,41.0,30.09,NNE,24,1.0,-999.0,94,-99.99,,,-99.99,,2013-07-29 07:01:00,
2013-07-29 01:11:00,43.0,41.0,30.09,NNE,24,0.0,-999.0,94,-99.99,,,-99.99,,2013-07-29 07:11:00,
2013-07-29 01:22:00,42.0,40.0,30.09,NNE,24,0.0,-999.0,91,-99.99,,,-99.99,,2013-07-29 07:22:00,
2013-07-29 01:43:00,41.0,39.0,30.09,NNE,24,1.0,-999.0,93,-99.99,,,-99.99,,2013-07-29 07:43:00,
2013-07-29 01:53:00,41.0,39.0,30.09,NNE,24,0.0,-999.0,94,-99.99,,,-99.99,,2013-07-29 07:53:00,
2013-07-29 02:11:00,42.0,40.0,30.09,NNE,24,0.0,-999.0,94,-99.99,,,-99.99,,2013-07-29 08:11:00,
2013-07-29 02:33:00,42.0,40.0,30.10,NNE,24,0.0,-999.0,94,-99.99,,,-99.99,,2013-07-29 08:33:00,
2013-07-29 02:52:00,39.0,37.0,30.10,NNE,24,0.0,-999.0,92,-99.99,,,-99.99,,2013-07-29 08:52:00,
2013-07-29 03:02:00,40.0,38.0,30.10,NNE,24,0.0,-999.0,94,-99.99,,,-99.99,,2013-07-29 09:02:00,
2013-07-29 03:12:00,40.0,38.0,30.10,NNE,24,0.0,-999.0,94,-99.99,,,-99.99,,2013-07-29 09:12:00,
2013-07-29 03:22:00,39.0,37.0,30.10,NNE,24,0.0,-999.0,91,-99.99,,,-99.99,,2013-07-29 09:22:00,
2013-07-29 03:33:00,39.0,37.0,30.11,NNE,24,1.0,-999.0,94,-99.99,,,-99.99,,2013-07-29 09:33:00,
2013-07-29 03:43:00,39.0,37.0,30.10,NNE,24,0.0,-999.0,94,-99.99,,,-99.99,,2013-07-29 09:43:00,
2013-07-29 03:53:00,39.0,38.0,30.10,NNE,24,0.0,-999.0,95,-99.99,,,-99.99,,2013-07-29 09:53:00,
2013-07-29 04:01:00,38.0,36.0,30.11,NNE,24,0.0,-999.0,93,-99.99,,,-99.99,,2013-07-29 10:01:00,
2013-07-29 04:12:00,37.0,35.0,30.11,NNE,24,0.0,-999.0,93,-99.99,,,-99.99,,2013-07-29 10:12:00,
2013-07-29 04:43:00,37.0,35.0,30.13,NNE,24,0.0,-999.0,94,-99.99,,,-99.99,,2013-07-29 10:43:00,
2013-07-29 05:02:00,37.0,35.0,30.14,NNE,24,0.0,-999.0,94,-99.99,,,-99.99,,2013-07-29 11:02:00,
2013-07-29 05:11:00,37.0,35.0,30.14,NNE,24,0.0,-999.0,94,-99.99,,,-99.99,,2013-07-29 11:11:00,
2013-07-29 05:43:00,37.0,36.0,30.13,NNE,24,0.0,-999.0,95,-99.99,,,-99.99,,2013-07-29 11:43:00,
2013-07-29 05:53:00,36.0,34.0,30.13,NNE,24,0.0,-999.0,94,-99.99,,,-99.99,,2013-07-29 11:53:00,
2013-07-29 06:03:00,36.0,34.0,30.14,NNE,24,0.0,-999.0,94,-99.99,,,-99.99,,2013-07-29 12:03:00,
2013-07-29 06:12:00,35.0,33.0,30.13,NNE,24,0.0,-999.0,94,-99.99,,,-99.99,,2013-07-29 12:12:00,
2013-07-29 06:33:00,36.0,35.0,30.13,NNE,24,0.0,-999.0,95,-99.99,,,-99.99,,2013-07-29 12:33:00,
2013-07-29 06:52:00,36.0,35.0,30.14,NNE,24,0.0,-999.0,95,-99.99,,,-99.99,,2013-07-29 12:52:00,
2013-07-29 07:33:00,40.0,39.0,30.15,WNW,295,0.0,-999.0,96,-99.99,,,-99.99,,2013-07-29 13:33:00,
2013-07-29 07:53:00,42.0,41.0,30.16,WNW,295,0.0,-999.0,96,-99.99,,,-99.99,,2013-07-29 13:53:00,
2013-07-29 08:02:00,43.0,42.0,30.16,WNW,296,0.0,-999.0,96,-99.99,,,-99.99,,2013-07-29 14:02:00,
2013-07-29 08:33:00,47.0,44.0,30.18,North,5,1.0,-999.0,90,-99.99,,,-99.99,,2013-07-29 14:33:00,
2013-07-29 08:42:00,47.0,44.0,30.19,WNW,302,1.0,-999.0,89,-99.99,,,-99.99,,2013-07-29 14:42:00,
2013-07-29 08:53:00,47.0,44.0,30.18,WNW,302,0.0,-999.0,90,-99.99,,,-99.99,,2013-07-29 14:53:00,
2013-07-29 09:02:00,49.0,45.0,30.19,WNW,302,0.0,-999.0,87,-99.99,,,-99.99,,2013-07-29 15:02:00,
2013-07-29 09:11:00,50.0,45.0,30.19,WNW,302,0.0,-999.0,84,-99.99,,,-99.99,,2013-07-29 15:11:00,
2013-07-29 09:33:00,54.0,47.0,30.18,ENE,67,1.0,-999.0,76,-99.99,,,-99.99,,2013-07-29 15:33:00,
2013-07-29 09:43:00,56.0,47.0,30.18,East,96,0.0,-999.0,72,-99.99,,,-99.99,,2013-07-29 15:43:00,
2013-07-29 10:33:00,57.0,48.0,30.18,South,183,1.0,-999.0,73,-99.99,,,-99.99,,2013-07-29 16:33:00,
2013-07-29 10:53:00,59.0,48.0,30.17,South,178,1.0,-999.0,68,-99.99,,,-99.99,,2013-07-29 16:53:00,
2013-07-29 11:53:00,65.0,49.0,30.16,West,269,1.0,-999.0,56,-99.99,,,-99.99,,2013-07-29 17:53:00,
2013-07-29 12:52:00,69.0,50.0,30.16,NNW,344,4.0,-999.0,50,-99.99,,,-99.99,,2013-07-29 18:52:00,
2013-07-29 13:02:00,69.0,51.0,30.16,NW,321,4.0,-999.0,53,-99.99,,,-99.99,,2013-07-29 19:02:00,
2013-07-29 13:34:00,70.0,49.0,30.16,WNW,300,4.0,-999.0,47,-99.99,,,-99.99,,2013-07-29 19:34:00,
2013-07-29 14:33:00,69.0,49.0,30.14,NNW,336,3.0,-999.0,49,-99.99,,,-99.99,,2013-07-29 20:33:00,
2013-07-29 14:44:00,71.0,48.0,30.14,NNW,342,0.0,-999.0,44,-99.99,,,-99.99,,2013-07-29 20:44:00,
2013-07-29 14:54:00,71.0,48.0,30.13,NNW,342,0.0,-999.0,44,-99.99,,,-99.99,,2013-07-29 20:54:00,
2013-07-29 15:12:00,70.0,52.0,30.13,WNW,290,1.0,-999.0,52,-99.99,,,-99.99,,2013-07-29 21:12:00,
2013-07-29 18:12:00,69.0,48.0,30.14,SSW,202,3.0,-999.0,48,-99.99,,,-99.99,,2013-07-30 00:12:00,
2013-07-29 19:32:00,56.0,51.0,30.19,West,276,3.0,-999.0,84,-99.99,,,-99.99,,2013-07-30 01:32:00,
2013-07-29 19:52:00,56.0,51.0,30.19,NE,49,3.0,-999.0,82,-99.99,,,-99.99,,2013-07-30 01:52:00,
2013-07-29 20:02:00,56.0,52.0,30.19,NW,309,1.0,-999.0,85,-99.99,,,-99.99,,2013-07-30 02:02:00,
2013-07-29 20:12:00,55.0,51.0,30.19,WSW,240,1.0,-999.0,87,-99.99,,,-99.99,,2013-07-30 02:12:00,
2013-07-29 20:33:00,55.0,51.0,30.19,West,267,2.0,-999.0,86,-99.99,,,-99.99,,2013-07-30 02:33:00,
2013-07-29 20:52:00,55.0,52.0,30.20,West,273,0.0,-999.0,89,-99.99,,,-99.99,,2013-07-30 02:52:00,
2013-07-29 21:01:00,55.0,52.0,30.20,West,273,0.0,-999.0,89,-99.99,,,-99.99,,2013-07-30 03:01:00,
2013-07-29 21:11:00,54.0,50.0,30.21,West,273,0.0,-999.0,87,-99.99,,,-99.99,,2013-07-30 03:11:00,
2013-07-29 21:33:00,52.0,49.0,30.22,West,273,0.0,-999.0,90,-99.99,,,-99.99,,2013-07-30 03:33:00,
2013-07-29 21:43:00,52.0,50.0,30.22,ENE,73,0.0,-999.0,92,-99.99,,,-99.99,,2013-07-30 03:43:00,
2013-07-29 22:02:00,52.0,50.0,30.22,SSW,203,1.0,-999.0,92,-99.99,,,-99.99,,2013-07-30 04:02:00,
2013-07-29 22:32:00,51.0,48.0,30.23,SSW,203,0.0,-999.0,88,-99.99,,,-99.99,,2013-07-30 04:32:00,
2013-07-29 22:43:00,50.0,48.0,30.23,SSW,203,0.0,-999.0,92,-99.99,,,-99.99,,2013-07-30 04:43:00,
2013-07-29 22:52:00,51.0,49.0,30.24,SSW,213,1.0,-999.0,92,-99.99,,,-99.99,,2013-07-30 04:52:00,
2013-07-29 23:02:00,52.0,49.0,30.24,SSW,203,2.0,-999.0,90,-99.99,,,-99.99,,2013-07-30 05:02:00,
2013-07-29 23:45:00,50.0,47.0,30.24,South,171,0.0,-999.0,88,-99.99,,,-99.99,,2013-07-30 05:45:00,
2013-07-29 23:52:00,50.0,47.0,30.24,SE,127,1.0,-999.0,90,-99.99,,,-99.99,,2013-07-30 05:52:00,